createdAt,value
2022-11-29T00:00:23.009Z,16
2022-11-29T00:01:23.004Z,17
2022-11-29T00:02:23.112Z,16
2022-11-29T00:03:23.037Z,16
2022-11-29T00:04:22.960Z,16
2022-11-29T00:05:22.957Z,16
2022-11-29T00:06:22.950Z,16
2022-11-29T00:07:23.061Z,17
2022-11-29T00:08:23.000Z,17
2022-11-29T00:09:22.950Z,16
2022-11-29T00:10:22.948Z,16
2022-11-29T00:11:22.954Z,16
2022-11-29T00:12:22.979Z,17
2022-11-29T00:13:22.965Z,18
2022-11-29T00:14:22.974Z,16
2022-11-29T00:15:22.971Z,17
2022-11-29T00:16:23.082Z,16
2022-11-29T00:17:22.954Z,17
2022-11-29T00:18:22.966Z,17
2022-11-29T00:19:22.993Z,16
2022-11-29T00:20:22.960Z,17
2022-11-29T00:21:22.957Z,16
2022-11-29T00:22:23.051Z,17
2022-11-29T00:23:23.003Z,16
2022-11-29T00:24:22.994Z,16
2022-11-29T00:25:22.959Z,15
2022-11-29T00:26:22.961Z,15
2022-11-29T00:27:22.998Z,15
2022-11-29T00:28:22.962Z,15
2022-11-29T00:29:22.969Z,16
2022-11-29T00:30:23.098Z,16
2022-11-29T00:31:23.063Z,16
2022-11-29T00:32:22.996Z,16
2022-11-29T00:33:22.968Z,17
2022-11-29T00:34:22.952Z,17
2022-11-29T00:35:23.119Z,17
2022-11-29T00:36:22.996Z,17
2022-11-29T00:37:22.998Z,16
2022-11-29T00:38:22.961Z,17
2022-11-29T00:39:23.015Z,16
2022-11-29T00:40:22.992Z,17
2022-11-29T00:41:22.976Z,17
2022-11-29T00:42:22.947Z,17
2022-11-29T00:43:22.953Z,16
2022-11-29T00:44:22.949Z,15
2022-11-29T00:45:22.953Z,15
2022-11-29T00:46:23.009Z,15
2022-11-29T00:47:23.023Z,15
2022-11-29T00:48:22.956Z,16
2022-11-29T00:49:22.954Z,15
2022-11-29T00:50:22.949Z,15
2022-11-29T00:51:22.981Z,16
2022-11-29T00:52:22.955Z,16
2022-11-29T00:53:22.960Z,16
2022-11-29T00:54:22.967Z,16
2022-11-29T00:55:23.006Z,17
2022-11-29T00:56:22.957Z,16
2022-11-29T00:57:22.952Z,15
2022-11-29T00:58:22.987Z,14
2022-11-29T00:59:22.952Z,14
2022-11-29T01:00:22.954Z,16
2022-11-29T01:01:23.040Z,15
2022-11-29T01:02:23.051Z,15
2022-11-29T01:03:23.013Z,14
2022-11-29T01:04:23.019Z,14
2022-11-29T01:05:23.004Z,15
2022-11-29T01:06:23.014Z,15
2022-11-29T01:07:23.010Z,14
2022-11-29T01:08:22.959Z,14
2022-11-29T01:09:22.945Z,14
2022-11-29T01:10:23.023Z,14
2022-11-29T01:11:23.007Z,14
2022-11-29T01:12:22.962Z,13
2022-11-29T01:13:22.994Z,13
2022-11-29T01:14:22.954Z,13
2022-11-29T01:15:22.966Z,13
2022-11-29T01:16:23.040Z,12
2022-11-29T01:17:22.959Z,12
2022-11-29T01:18:23.022Z,13
2022-11-29T01:19:23.000Z,13
2022-11-29T01:20:22.970Z,12
2022-11-29T01:21:22.966Z,12
2022-11-29T01:22:22.968Z,13
2022-11-29T01:23:22.953Z,13
2022-11-29T01:24:23.006Z,12
2022-11-29T01:25:22.960Z,13
2022-11-29T01:26:23.010Z,13
2022-11-29T01:27:22.986Z,13
2022-11-29T01:28:22.968Z,13
2022-11-29T01:29:22.990Z,12
2022-11-29T01:30:22.989Z,13
2022-11-29T01:31:22.955Z,12
2022-11-29T01:32:22.943Z,13
2022-11-29T01:33:22.943Z,12
2022-11-29T01:34:23.045Z,12
2022-11-29T01:35:23.025Z,12
2022-11-29T01:36:22.945Z,12
2022-11-29T01:37:22.954Z,12
2022-11-29T01:38:23.034Z,13
2022-11-29T01:39:22.964Z,12
2022-11-29T01:40:22.980Z,12
2022-11-29T01:41:22.963Z,12
2022-11-29T01:42:23.001Z,12
2022-11-29T01:43:22.957Z,12
2022-11-29T01:44:22.962Z,12
2022-11-29T01:45:22.955Z,12
2022-11-29T01:46:23.010Z,12
2022-11-29T01:47:22.948Z,12
2022-11-29T01:48:22.961Z,12
2022-11-29T01:49:23.007Z,11
2022-11-29T01:50:22.999Z,11
2022-11-29T01:51:22.961Z,12
2022-11-29T01:52:22.963Z,12
2022-11-29T01:53:22.948Z,12
2022-11-29T01:54:22.954Z,12
2022-11-29T01:55:23.011Z,11
2022-11-29T01:56:23.099Z,12
2022-11-29T01:57:23.003Z,12
2022-11-29T01:58:23.155Z,11
2022-11-29T01:59:23.190Z,12
2022-11-29T02:00:23.074Z,13
2022-11-29T02:01:23.053Z,12
2022-11-29T02:02:23.039Z,11
2022-11-29T02:03:22.970Z,12
2022-11-29T02:04:22.957Z,13
2022-11-29T02:05:23.000Z,11
2022-11-29T02:06:23.284Z,13
2022-11-29T02:07:23.002Z,12
2022-11-29T02:08:22.970Z,12
2022-11-29T02:09:22.952Z,12
2022-11-29T02:10:22.957Z,13
2022-11-29T02:11:22.952Z,12
2022-11-29T02:12:22.962Z,13
2022-11-29T02:13:22.992Z,12
2022-11-29T02:14:22.956Z,12
2022-11-29T02:15:22.977Z,12
2022-11-29T02:16:22.960Z,12
2022-11-29T02:17:22.973Z,13
2022-11-29T02:18:22.955Z,12
2022-11-29T02:19:22.951Z,13
2022-11-29T02:20:22.948Z,12
2022-11-29T02:21:22.981Z,13
2022-11-29T02:22:22.956Z,12
2022-11-29T02:23:22.956Z,12
2022-11-29T02:24:22.952Z,12
2022-11-29T02:25:22.947Z,12
2022-11-29T02:26:22.957Z,13
2022-11-29T02:27:22.963Z,12
2022-11-29T02:28:22.962Z,13
2022-11-29T02:29:22.997Z,12
2022-11-29T02:30:22.971Z,13
2022-11-29T02:31:22.991Z,12
2022-11-29T02:32:22.952Z,13
2022-11-29T02:33:22.945Z,13
2022-11-29T02:34:22.950Z,12
2022-11-29T02:35:22.988Z,13
2022-11-29T02:36:23.003Z,13
2022-11-29T02:37:22.997Z,13
2022-11-29T02:38:22.952Z,13
2022-11-29T02:39:23.076Z,13
2022-11-29T02:40:22.960Z,13
2022-11-29T02:41:22.987Z,13
2022-11-29T02:42:22.961Z,14
2022-11-29T02:43:22.952Z,13
2022-11-29T02:44:23.004Z,14
2022-11-29T02:45:23.001Z,14
2022-11-29T02:46:23.002Z,13
2022-11-29T02:47:22.967Z,13
2022-11-29T02:48:22.949Z,13
2022-11-29T02:49:22.966Z,14
2022-11-29T02:50:22.945Z,13
2022-11-29T02:51:22.964Z,13
2022-11-29T02:52:23.009Z,14
2022-11-29T02:53:22.997Z,14
2022-11-29T02:54:22.972Z,15
2022-11-29T02:55:22.963Z,14
2022-11-29T02:56:22.947Z,15
2022-11-29T02:57:22.952Z,15
2022-11-29T02:58:22.965Z,14
2022-11-29T02:59:22.975Z,14
2022-11-29T03:00:22.994Z,15
2022-11-29T03:01:23.001Z,15
2022-11-29T03:02:23.039Z,15
2022-11-29T03:03:22.961Z,15
2022-11-29T03:04:22.993Z,15
2022-11-29T03:05:22.949Z,15
2022-11-29T03:06:22.958Z,15
2022-11-29T03:07:23.010Z,15
2022-11-29T03:08:22.988Z,14
2022-11-29T03:09:22.956Z,14
2022-11-29T03:10:22.942Z,15
2022-11-29T03:11:22.963Z,15
2022-11-29T03:12:22.954Z,15
2022-11-29T03:13:22.954Z,14
2022-11-29T03:14:22.961Z,14
2022-11-29T03:15:23.011Z,15
2022-11-29T03:16:22.987Z,15
2022-11-29T03:17:22.962Z,15
2022-11-29T03:18:22.951Z,15
2022-11-29T03:19:23.002Z,16
2022-11-29T03:20:22.963Z,15
2022-11-29T03:21:22.975Z,16
2022-11-29T03:22:22.974Z,15
2022-11-29T03:23:23.012Z,15
2022-11-29T03:24:22.987Z,17
2022-11-29T03:25:22.955Z,17
2022-11-29T03:26:22.962Z,17
2022-11-29T03:27:22.961Z,16
2022-11-29T03:28:22.965Z,16
2022-11-29T03:29:23.025Z,15
2022-11-29T03:30:22.957Z,16
2022-11-29T03:31:23.055Z,16
2022-11-29T03:32:22.992Z,16
2022-11-29T03:33:22.968Z,17
2022-11-29T03:34:22.959Z,16
2022-11-29T03:35:22.956Z,16
2022-11-29T03:36:22.946Z,17
2022-11-29T03:37:22.942Z,18
2022-11-29T03:38:22.948Z,17
2022-11-29T03:39:22.998Z,17
2022-11-29T03:40:22.949Z,17
2022-11-29T03:41:22.964Z,18
2022-11-29T03:42:22.968Z,18
2022-11-29T03:43:22.977Z,17
2022-11-29T03:44:22.964Z,18
2022-11-29T03:45:22.953Z,18
2022-11-29T03:46:23.054Z,19
2022-11-29T03:47:22.988Z,20
2022-11-29T03:48:22.959Z,20
2022-11-29T03:49:22.970Z,21
2022-11-29T03:50:23.036Z,20
2022-11-29T03:51:30.920Z,20
2022-11-29T03:52:22.996Z,21
2022-11-29T03:53:22.992Z,25
2022-11-29T03:54:23.015Z,25
2022-11-29T03:55:22.990Z,33
2022-11-29T03:56:22.951Z,37
2022-11-29T03:57:22.951Z,35
2022-11-29T03:58:22.955Z,33
2022-11-29T03:59:22.957Z,34
2022-11-29T04:00:22.961Z,35
2022-11-29T04:01:22.982Z,35
2022-11-29T04:02:23.019Z,46
2022-11-29T04:03:22.992Z,46
2022-11-29T04:04:22.987Z,40
2022-11-29T04:05:23.016Z,42
2022-11-29T04:06:22.976Z,41
2022-11-29T04:07:23.005Z,46
2022-11-29T04:08:22.949Z,48
2022-11-29T04:09:22.959Z,53
2022-11-29T04:10:23.022Z,56
2022-11-29T04:11:22.990Z,62
2022-11-29T04:12:22.954Z,63
2022-11-29T04:13:22.944Z,42
2022-11-29T04:14:22.982Z,55
2022-11-29T04:15:22.954Z,52
2022-11-29T04:16:23.050Z,55
2022-11-29T04:17:22.941Z,70
2022-11-29T04:18:23.002Z,54
2022-11-29T04:19:22.998Z,70
2022-11-29T04:20:22.960Z,43
2022-11-29T04:21:22.949Z,46
2022-11-29T04:22:22.938Z,50
2022-11-29T04:23:22.957Z,50
2022-11-29T04:24:22.946Z,51
2022-11-29T04:25:22.959Z,56
2022-11-29T04:26:23.003Z,64
2022-11-29T04:27:22.944Z,52
2022-11-29T04:28:22.950Z,59
2022-11-29T04:29:22.950Z,52
2022-11-29T04:30:22.984Z,59
2022-11-29T04:31:23.020Z,47
2022-11-29T04:32:22.961Z,57
2022-11-29T04:33:22.965Z,48
2022-11-29T04:34:23.001Z,50
2022-11-29T04:35:22.977Z,45
2022-11-29T04:36:22.960Z,45
2022-11-29T04:37:22.958Z,52
2022-11-29T04:38:22.954Z,43
2022-11-29T04:39:22.950Z,51
2022-11-29T04:40:22.940Z,54
2022-11-29T04:41:22.993Z,55
2022-11-29T04:42:22.982Z,47
2022-11-29T04:43:22.937Z,49
2022-11-29T04:44:23.064Z,61
2022-11-29T04:45:22.952Z,57
2022-11-29T04:46:23.005Z,60
2022-11-29T04:47:22.968Z,55
2022-11-29T04:48:22.950Z,40
2022-11-29T04:49:22.998Z,39
2022-11-29T04:50:22.984Z,41
2022-11-29T04:51:22.957Z,46
2022-11-29T04:52:22.938Z,54
2022-11-29T04:53:22.941Z,51
2022-11-29T04:54:22.951Z,53
2022-11-29T04:55:29.393Z,53
2022-11-29T04:56:22.951Z,48
2022-11-29T04:57:22.995Z,50
2022-11-29T04:58:23.070Z,51
2022-11-29T04:59:22.948Z,53
2022-11-29T05:00:22.962Z,50
2022-11-29T05:01:23.041Z,54
2022-11-29T05:02:22.980Z,42
2022-11-29T05:03:22.967Z,53
2022-11-29T05:04:22.948Z,45
2022-11-29T05:05:22.993Z,49
2022-11-29T05:06:23.016Z,41
2022-11-29T05:07:22.975Z,70
2022-11-29T05:08:22.966Z,64
2022-11-29T05:09:22.954Z,69
2022-11-29T05:10:22.942Z,58
2022-11-29T05:11:26.737Z,55
2022-11-29T05:12:22.953Z,44
2022-11-29T05:13:22.997Z,58
2022-11-29T05:14:22.954Z,50
2022-11-29T05:15:22.957Z,55
2022-11-29T05:16:23.060Z,49
2022-11-29T05:17:22.943Z,53
2022-11-29T05:18:22.966Z,54
2022-11-29T05:19:22.954Z,41
2022-11-29T05:20:22.970Z,49
2022-11-29T05:21:22.984Z,42
2022-11-29T05:22:22.949Z,39
2022-11-29T05:23:22.952Z,46
2022-11-29T05:24:22.959Z,45
2022-11-29T05:25:22.957Z,36
2022-11-29T05:26:22.949Z,43
2022-11-29T05:27:22.953Z,41
2022-11-29T05:28:22.996Z,43
2022-11-29T05:29:22.989Z,42
2022-11-29T05:30:22.945Z,56
2022-11-29T05:31:23.035Z,55
2022-11-29T05:32:22.952Z,65
2022-11-29T05:33:22.937Z,65
2022-11-29T05:34:22.961Z,72
2022-11-29T05:35:22.957Z,62
2022-11-29T05:36:22.989Z,66
2022-11-29T05:37:23.031Z,61
2022-11-29T05:38:22.946Z,62
2022-11-29T05:39:22.958Z,68
2022-11-29T05:40:22.961Z,72
2022-11-29T05:41:22.954Z,69
2022-11-29T05:42:22.969Z,58
2022-11-29T05:43:22.948Z,78
2022-11-29T05:44:23.002Z,75
2022-11-29T05:45:22.994Z,71
2022-11-29T05:46:23.052Z,72
2022-11-29T05:47:25.715Z,69
2022-11-29T05:48:22.948Z,76
2022-11-29T05:49:22.940Z,91
2022-11-29T05:50:23.056Z,83
2022-11-29T05:51:23.074Z,67
2022-11-29T05:52:23.124Z,56
2022-11-29T05:53:23.028Z,81
2022-11-29T05:54:23.155Z,88
2022-11-29T05:55:23.197Z,82
2022-11-29T05:56:23.009Z,62
2022-11-29T05:57:22.932Z,79
2022-11-29T05:58:28.604Z,78
2022-11-29T05:59:22.947Z,74
2022-11-29T06:00:22.987Z,72
2022-11-29T06:01:22.953Z,77
2022-11-29T06:02:23.011Z,75
2022-11-29T06:03:22.946Z,70
2022-11-29T06:04:22.926Z,72
2022-11-29T06:05:22.943Z,67
2022-11-29T06:06:22.954Z,68
2022-11-29T06:07:23.023Z,69
2022-11-29T06:08:23.021Z,72
2022-11-29T06:09:22.945Z,69
2022-11-29T06:10:22.934Z,53
2022-11-29T06:11:22.948Z,65
2022-11-29T06:12:22.944Z,63
2022-11-29T06:13:22.939Z,64
2022-11-29T06:14:22.940Z,59
2022-11-29T06:15:22.994Z,56
2022-11-29T06:16:23.049Z,70
2022-11-29T06:17:22.938Z,68
2022-11-29T06:18:22.960Z,70
2022-11-29T06:19:22.950Z,70
2022-11-29T06:20:22.957Z,74
2022-11-29T06:21:22.960Z,63
2022-11-29T06:22:22.946Z,70
2022-11-29T06:23:23.010Z,68
2022-11-29T06:24:25.929Z,59
2022-11-29T06:25:22.945Z,65
2022-11-29T06:26:22.962Z,60
2022-11-29T06:27:22.948Z,69
2022-11-29T06:28:22.937Z,56
2022-11-29T06:29:22.948Z,66
2022-11-29T06:30:22.941Z,70
2022-11-29T06:31:23.066Z,69
2022-11-29T06:32:22.984Z,73
2022-11-29T06:33:22.952Z,67
2022-11-29T06:34:27.561Z,73
2022-11-29T06:35:22.951Z,65
2022-11-29T06:36:22.961Z,65
2022-11-29T06:37:22.962Z,74
2022-11-29T06:38:22.951Z,70
2022-11-29T06:39:23.032Z,78
2022-11-29T06:40:22.948Z,75
2022-11-29T06:41:22.952Z,74
2022-11-29T06:42:22.983Z,75
2022-11-29T06:43:22.958Z,70
2022-11-29T06:44:22.938Z,85
2022-11-29T06:45:22.964Z,72
2022-11-29T06:46:23.055Z,77
2022-11-29T06:47:22.993Z,77
2022-11-29T06:48:22.946Z,82
2022-11-29T06:49:22.950Z,75
2022-11-29T06:50:22.942Z,74
2022-11-29T06:51:22.964Z,66
2022-11-29T06:52:22.944Z,74
2022-11-29T06:53:22.947Z,85
2022-11-29T06:54:22.984Z,79
2022-11-29T06:55:23.000Z,72
2022-11-29T06:56:22.967Z,81
2022-11-29T06:57:22.949Z,78
2022-11-29T06:58:22.960Z,83
2022-11-29T06:59:22.959Z,77
2022-11-29T07:00:22.939Z,80
2022-11-29T07:01:23.062Z,78
2022-11-29T07:02:23.028Z,83
2022-11-29T07:03:22.983Z,81
2022-11-29T07:04:22.947Z,75
2022-11-29T07:05:22.941Z,72
2022-11-29T07:06:22.984Z,83
2022-11-29T07:07:23.028Z,77
2022-11-29T07:08:22.950Z,80
2022-11-29T07:09:22.938Z,73
2022-11-29T07:10:23.028Z,81
2022-11-29T07:11:23.017Z,83
2022-11-29T07:12:22.946Z,82
2022-11-29T07:13:22.943Z,78
2022-11-29T07:14:22.945Z,74
2022-11-29T07:15:22.941Z,81
2022-11-29T07:16:23.042Z,51
2022-11-29T07:17:23.002Z,86
2022-11-29T07:18:22.996Z,84
2022-11-29T07:19:22.977Z,80
2022-11-29T07:20:22.971Z,66
2022-11-29T07:21:22.957Z,83
2022-11-29T07:22:22.984Z,83
2022-11-29T07:23:22.934Z,81
2022-11-29T07:24:22.945Z,80
2022-11-29T07:25:22.934Z,81
2022-11-29T07:26:23.004Z,80
2022-11-29T07:27:22.933Z,91
2022-11-29T07:28:22.939Z,75
2022-11-29T07:29:22.932Z,85
2022-11-29T07:30:22.977Z,91
2022-11-29T07:31:23.042Z,84
2022-11-29T07:32:22.937Z,74
2022-11-29T07:33:22.950Z,85
2022-11-29T07:34:22.970Z,86
2022-11-29T07:35:22.940Z,84
2022-11-29T07:36:22.959Z,83
2022-11-29T07:37:22.930Z,77
2022-11-29T07:38:22.930Z,80
2022-11-29T07:39:22.945Z,78
2022-11-29T07:40:22.951Z,80
2022-11-29T07:41:28.195Z,91
2022-11-29T07:42:22.985Z,80
2022-11-29T07:43:23.095Z,80
2022-11-29T07:44:23.244Z,83
2022-11-29T07:45:23.154Z,76
2022-11-29T07:46:23.203Z,87
2022-11-29T07:47:23.077Z,86
2022-11-29T07:48:23.296Z,89
2022-11-29T07:49:23.381Z,81
2022-11-29T07:50:23.383Z,92
2022-11-29T07:51:23.553Z,89
2022-11-29T07:52:23.138Z,99
2022-11-29T07:53:23.147Z,84
2022-11-29T07:54:23.127Z,89
2022-11-29T07:55:23.151Z,69
2022-11-29T07:56:23.185Z,85
2022-11-29T07:57:23.118Z,92
2022-11-29T07:58:23.257Z,90
2022-11-29T07:59:23.094Z,82
2022-11-29T08:00:23.172Z,87
2022-11-29T08:01:23.253Z,87
2022-11-29T08:02:23.150Z,92
2022-11-29T08:03:23.151Z,87
2022-11-29T08:04:23.138Z,93
2022-11-29T08:05:23.183Z,98
2022-11-29T08:06:23.124Z,99
2022-11-29T08:07:23.198Z,75
2022-11-29T08:08:23.119Z,101
2022-11-29T08:09:23.117Z,91
2022-11-29T08:10:23.142Z,89
2022-11-29T08:11:23.132Z,90
2022-11-29T08:12:23.146Z,84
2022-11-29T08:13:23.134Z,88
2022-11-29T08:14:23.175Z,66
2022-11-29T08:15:23.127Z,90
2022-11-29T08:16:23.216Z,97
2022-11-29T08:17:23.126Z,93
2022-11-29T08:18:23.056Z,98
2022-11-29T08:19:23.034Z,93
2022-11-29T08:20:23.106Z,99
2022-11-29T08:21:23.184Z,93
2022-11-29T08:22:23.133Z,96
2022-11-29T08:23:23.109Z,96
2022-11-29T08:24:23.144Z,99
2022-11-29T08:25:23.107Z,98
2022-11-29T08:26:28.145Z,102
2022-11-29T08:27:23.114Z,105
2022-11-29T08:28:23.179Z,89
2022-11-29T08:29:23.194Z,108
2022-11-29T08:30:23.165Z,104
2022-11-29T08:31:23.195Z,107
2022-11-29T08:32:23.136Z,111
2022-11-29T08:33:23.149Z,105
2022-11-29T08:34:23.208Z,115
2022-11-29T08:35:23.128Z,100
2022-11-29T08:36:23.113Z,117
2022-11-29T08:37:23.173Z,114
2022-11-29T08:38:23.384Z,100
2022-11-29T08:39:23.430Z,107
2022-11-29T08:40:23.156Z,73
2022-11-29T08:41:23.179Z,77
2022-11-29T08:42:23.050Z,107
2022-11-29T08:43:23.158Z,106
2022-11-29T08:44:23.168Z,114
2022-11-29T08:45:23.203Z,111
2022-11-29T08:46:23.047Z,110
2022-11-29T08:47:23.083Z,106
2022-11-29T08:48:23.138Z,122
2022-11-29T08:49:23.148Z,120
2022-11-29T08:50:23.225Z,118
2022-11-29T08:51:23.205Z,126
2022-11-29T08:52:23.171Z,108
2022-11-29T08:53:23.149Z,112
2022-11-29T08:54:23.217Z,116
2022-11-29T08:55:23.318Z,117
2022-11-29T08:57:10.002Z,89
2022-11-29T08:57:40.583Z,94
2022-11-29T08:58:23.079Z,128
2022-11-29T08:59:23.246Z,115
2022-11-29T09:00:23.159Z,128
2022-11-29T09:01:23.110Z,124
2022-11-29T09:02:23.138Z,120
2022-11-29T09:03:22.955Z,99
2022-11-29T09:04:22.934Z,76
2022-11-29T09:05:22.938Z,77
2022-11-29T09:06:23.015Z,68
2022-11-29T09:07:23.019Z,71
2022-11-29T09:08:22.975Z,72
2022-11-29T09:09:22.959Z,72
2022-11-29T09:10:22.990Z,76
2022-11-29T09:11:22.958Z,73
2022-11-29T09:12:22.973Z,71
2022-11-29T09:13:22.958Z,69
2022-11-29T09:14:22.982Z,70
2022-11-29T09:15:22.973Z,64
2022-11-29T09:16:23.078Z,64
2022-11-29T09:17:22.967Z,65
2022-11-29T09:18:23.323Z,66
2022-11-29T09:19:22.950Z,64
2022-11-29T09:20:22.939Z,67
2022-11-29T09:21:22.990Z,68
2022-11-29T09:22:23.385Z,66
2022-11-29T09:23:22.989Z,64
2022-11-29T09:24:22.958Z,68
2022-11-29T09:25:22.985Z,69
2022-11-29T09:26:22.994Z,75
2022-11-29T09:27:22.968Z,74
2022-11-29T09:28:22.971Z,77
2022-11-29T09:29:22.938Z,79
2022-11-29T09:30:23.928Z,73
2022-11-29T09:31:23.075Z,68
2022-11-29T09:32:22.934Z,63
2022-11-29T09:33:22.935Z,64
2022-11-29T09:34:22.935Z,67
2022-11-29T09:35:22.932Z,73
2022-11-29T09:36:28.080Z,73
2022-11-29T09:37:22.928Z,71
2022-11-29T09:38:23.016Z,68
2022-11-29T09:39:23.001Z,73
2022-11-29T09:40:22.934Z,69
2022-11-29T09:41:23.007Z,67
2022-11-29T09:42:23.026Z,69
2022-11-29T09:43:22.948Z,68
2022-11-29T09:44:23.021Z,67
2022-11-29T09:45:23.135Z,64
2022-11-29T09:46:23.203Z,69
2022-11-29T09:47:22.987Z,70
2022-11-29T09:48:22.929Z,71
2022-11-29T09:49:22.942Z,71
2022-11-29T09:50:22.952Z,66
2022-11-29T09:51:22.969Z,70
2022-11-29T09:52:22.932Z,68
2022-11-29T09:53:22.929Z,71
2022-11-29T09:54:22.999Z,67
2022-11-29T09:55:22.992Z,63
2022-11-29T09:56:23.024Z,60
2022-11-29T09:57:22.971Z,65
2022-11-29T09:58:22.956Z,67
2022-11-29T09:59:22.994Z,60
2022-11-29T10:00:22.927Z,63
2022-11-29T10:01:23.019Z,62
2022-11-29T10:02:23.021Z,63
2022-11-29T10:03:22.944Z,62
2022-11-29T10:04:22.929Z,63
2022-11-29T10:05:22.931Z,66
2022-11-29T10:06:22.984Z,61
2022-11-29T10:07:22.995Z,60
2022-11-29T10:08:22.934Z,67
2022-11-29T10:09:22.970Z,67
2022-11-29T10:10:22.970Z,63
2022-11-29T10:11:22.952Z,64
2022-11-29T10:12:22.958Z,65
2022-11-29T10:13:22.929Z,69
2022-11-29T10:14:22.927Z,68
2022-11-29T10:15:22.934Z,65
2022-11-29T10:16:22.975Z,59
2022-11-29T10:17:22.952Z,63
2022-11-29T10:18:22.968Z,66
2022-11-29T10:19:23.097Z,70
2022-11-29T10:20:22.974Z,66
2022-11-29T10:21:23.045Z,63
2022-11-29T10:22:23.017Z,57
2022-11-29T10:23:23.169Z,55
2022-11-29T10:24:22.999Z,56
2022-11-29T10:25:23.165Z,61
2022-11-29T10:26:23.241Z,61
2022-11-29T10:27:23.156Z,56
2022-11-29T10:28:22.972Z,52
2022-11-29T10:29:22.920Z,57
2022-11-29T10:30:22.928Z,56
2022-11-29T10:31:22.954Z,55
2022-11-29T10:32:22.942Z,57
2022-11-29T10:33:23.045Z,58
2022-11-29T10:34:23.131Z,58
2022-11-29T10:35:22.976Z,56
2022-11-29T10:36:22.947Z,56
2022-11-29T10:37:22.976Z,56
2022-11-29T10:38:31.776Z,54
2022-11-29T10:39:22.967Z,52
2022-11-29T10:40:23.030Z,50
2022-11-29T10:41:23.037Z,50
2022-11-29T10:42:22.927Z,48
2022-11-29T10:43:23.021Z,52
2022-11-29T10:44:22.923Z,52
2022-11-29T10:45:22.975Z,48
2022-11-29T10:46:22.987Z,47
2022-11-29T10:47:22.998Z,45
2022-11-29T10:48:22.937Z,48
2022-11-29T10:49:23.024Z,48
2022-11-29T10:50:22.979Z,46
2022-11-29T10:51:23.049Z,47
2022-11-29T10:52:22.930Z,48
2022-11-29T10:53:23.009Z,45
2022-11-29T10:54:22.927Z,44
2022-11-29T10:55:22.935Z,48
2022-11-29T10:56:22.986Z,45
2022-11-29T10:57:22.976Z,50
2022-11-29T10:58:27.646Z,47
2022-11-29T10:59:22.949Z,46
2022-11-29T11:00:22.924Z,44
2022-11-29T11:01:23.094Z,46
2022-11-29T11:02:23.029Z,47
2022-11-29T11:03:22.939Z,44
2022-11-29T11:04:22.987Z,44
2022-11-29T11:05:23.033Z,45
2022-11-29T11:06:22.954Z,46
2022-11-29T11:07:22.983Z,47
2022-11-29T11:08:22.931Z,43
2022-11-29T11:09:23.020Z,41
2022-11-29T11:10:22.931Z,44
2022-11-29T11:11:22.967Z,44
2022-11-29T11:12:22.991Z,42
2022-11-29T11:13:22.975Z,38
2022-11-29T11:14:22.939Z,41
2022-11-29T11:15:22.951Z,39
2022-11-29T11:16:22.968Z,40
2022-11-29T11:17:23.007Z,40
2022-11-29T11:18:22.961Z,36
2022-11-29T11:19:22.923Z,36
2022-11-29T11:20:22.963Z,37
2022-11-29T11:21:22.983Z,37
2022-11-29T11:22:22.918Z,34
2022-11-29T11:23:22.913Z,37
2022-11-29T11:24:23.028Z,38
2022-11-29T11:25:22.928Z,32
2022-11-29T11:26:23.051Z,36
2022-11-29T11:27:22.930Z,34
2022-11-29T11:28:23.018Z,33
2022-11-29T11:29:22.976Z,34
2022-11-29T11:30:22.917Z,33
2022-11-29T11:31:22.988Z,37
2022-11-29T11:32:22.936Z,36
2022-11-29T11:33:22.926Z,35
2022-11-29T11:34:22.926Z,37
2022-11-29T11:35:22.949Z,34
2022-11-29T11:36:23.117Z,34
2022-11-29T11:37:22.944Z,41
2022-11-29T11:38:23.016Z,40
2022-11-29T11:39:23.065Z,41
2022-11-29T11:40:23.146Z,38
2022-11-29T11:41:23.173Z,40
2022-11-29T11:42:22.946Z,36
2022-11-29T11:43:22.983Z,35
2022-11-29T11:44:48.932Z,36
2022-11-29T11:45:22.920Z,36
2022-11-29T11:46:23.051Z,37
2022-11-29T11:47:22.931Z,35
2022-11-29T11:48:22.935Z,33
2022-11-29T11:49:22.947Z,31
2022-11-29T11:50:23.054Z,33
2022-11-29T11:51:23.466Z,33
2022-11-29T11:52:22.966Z,34
2022-11-29T11:53:22.926Z,32
2022-11-29T11:54:22.936Z,33
2022-11-29T11:55:22.930Z,29
2022-11-29T11:56:23.062Z,34
2022-11-29T11:57:23.004Z,30
2022-11-29T11:58:22.929Z,32
2022-11-29T11:59:22.974Z,32
2022-11-29T12:00:47.518Z,30
2022-11-29T12:01:22.947Z,30
2022-11-29T12:02:23.053Z,32
2022-11-29T12:03:22.953Z,31
2022-11-29T12:04:22.912Z,32
2022-11-29T12:05:22.961Z,32
2022-11-29T12:06:22.919Z,29
2022-11-29T12:07:33.982Z,30
2022-11-29T12:08:23.003Z,30
2022-11-29T12:09:22.960Z,30
2022-11-29T12:10:22.987Z,30
2022-11-29T12:11:23.024Z,31
2022-11-29T12:12:22.960Z,28
2022-11-29T12:13:22.936Z,30
2022-11-29T12:14:22.957Z,31
2022-11-29T12:15:22.966Z,31
2022-11-29T12:16:22.943Z,30
2022-11-29T12:17:22.930Z,30
2022-11-29T12:18:22.918Z,32
2022-11-29T12:19:22.955Z,34
2022-11-29T12:20:22.989Z,32
2022-11-29T12:21:22.935Z,32
2022-11-29T12:22:22.990Z,31
2022-11-29T12:23:23.026Z,31
2022-11-29T12:24:23.149Z,30
2022-11-29T12:25:23.247Z,31
2022-11-29T12:26:55.181Z,30
2022-11-29T12:27:22.925Z,30
2022-11-29T12:28:22.931Z,31
2022-11-29T12:29:22.990Z,33
2022-11-29T12:30:22.965Z,34
2022-11-29T12:31:22.981Z,32
2022-11-29T12:32:22.925Z,30
2022-11-29T12:33:22.947Z,32
2022-11-29T12:34:23.026Z,32
2022-11-29T12:35:22.926Z,33
2022-11-29T12:36:22.927Z,32
2022-11-29T12:37:22.986Z,32
2022-11-29T12:38:22.916Z,33
2022-11-29T12:39:23.037Z,34
2022-11-29T12:40:22.933Z,35
2022-11-29T12:41:22.970Z,35
2022-11-29T12:42:22.939Z,34
2022-11-29T12:43:22.940Z,37
2022-11-29T12:44:22.926Z,37
2022-11-29T12:45:22.975Z,36
2022-11-29T12:46:22.985Z,39
2022-11-29T12:47:38.434Z,38
2022-11-29T12:48:22.958Z,36
2022-11-29T12:49:22.938Z,37
2022-11-29T12:50:22.921Z,39
2022-11-29T12:51:22.962Z,39
2022-11-29T12:52:22.972Z,40
2022-11-29T12:53:27.295Z,38
2022-11-29T12:54:22.927Z,39
2022-11-29T12:55:22.943Z,39
2022-11-29T12:56:22.935Z,41
2022-11-29T12:57:22.935Z,36
2022-11-29T12:58:22.947Z,40
2022-11-29T12:59:22.925Z,41
2022-11-29T13:00:22.968Z,39
2022-11-29T13:01:23.003Z,40
2022-11-29T13:02:22.969Z,39
2022-11-29T13:03:22.928Z,39
2022-11-29T13:04:22.911Z,40
2022-11-29T13:05:22.915Z,40
2022-11-29T13:06:22.942Z,41
2022-11-29T13:07:23.086Z,41
2022-11-29T13:08:22.964Z,41
2022-11-29T13:09:22.924Z,38
2022-11-29T13:10:22.953Z,40
2022-11-29T13:11:22.931Z,41
2022-11-29T13:12:22.918Z,44
2022-11-29T13:13:22.931Z,41
2022-11-29T13:14:51.085Z,44
2022-11-29T13:15:22.994Z,39
2022-11-29T13:16:27.668Z,40
2022-11-29T13:17:22.951Z,38
2022-11-29T13:18:22.913Z,42
2022-11-29T13:19:22.931Z,41
2022-11-29T13:20:22.924Z,44
2022-11-29T13:21:22.924Z,42
2022-11-29T13:22:23.085Z,41
2022-11-29T13:23:39.243Z,41
2022-11-29T13:24:22.920Z,38
2022-11-29T13:25:22.926Z,41
2022-11-29T13:26:22.915Z,39
2022-11-29T13:27:22.939Z,38
2022-11-29T13:28:22.920Z,36
2022-11-29T13:29:22.931Z,37
2022-11-29T13:30:22.943Z,37
2022-11-29T13:31:23.037Z,41
2022-11-29T13:32:22.915Z,40
2022-11-29T13:33:22.919Z,36
2022-11-29T13:34:22.923Z,36
2022-11-29T13:35:22.913Z,39
2022-11-29T13:36:22.932Z,39
2022-11-29T13:37:22.917Z,42
2022-11-29T13:38:22.967Z,40
2022-11-29T13:39:23.000Z,42
2022-11-29T13:40:23.114Z,39
2022-11-29T13:41:23.148Z,45
2022-11-29T13:42:23.205Z,42
2022-11-29T13:43:23.189Z,42
2022-11-29T13:44:23.143Z,38
2022-11-29T13:45:23.160Z,40
2022-11-29T13:46:23.309Z,37
2022-11-29T13:47:23.296Z,37
2022-11-29T13:48:27.787Z,38
2022-11-29T13:49:22.935Z,36
2022-11-29T13:50:22.926Z,36
2022-11-29T13:51:22.945Z,36
2022-11-29T13:52:22.944Z,37
2022-11-29T13:53:22.946Z,37
2022-11-29T13:54:22.964Z,37
2022-11-29T13:55:22.977Z,34
2022-11-29T13:56:22.919Z,37
2022-11-29T13:57:22.926Z,38
2022-11-29T13:58:22.923Z,37
2022-11-29T13:59:22.910Z,37
2022-11-29T14:00:22.931Z,35
2022-11-29T14:01:23.040Z,40
2022-11-29T14:02:22.925Z,37
2022-11-29T14:03:22.938Z,36
2022-11-29T14:04:22.919Z,36
2022-11-29T14:05:22.997Z,39
2022-11-29T14:06:22.911Z,37
2022-11-29T14:07:23.006Z,34
2022-11-29T14:08:22.927Z,38
2022-11-29T14:09:22.956Z,33
2022-11-29T14:10:28.885Z,35
2022-11-29T14:11:22.924Z,37
2022-11-29T14:12:22.938Z,35
2022-11-29T14:13:22.919Z,36
2022-11-29T14:14:22.917Z,38